sensor_id;sensor_type;location;lat;lon;timestamp;temperature;humidity
9118;DHT22;4594;50.994;7.126;2022-10-31T00:02:23;14.70;38.30
9118;DHT22;4594;50.994;7.126;2022-10-31T00:04:49;14.60;38.20
9118;DHT22;4594;50.994;7.126;2022-10-31T00:07:15;14.60;38.30
9118;DHT22;4594;50.994;7.126;2022-10-31T00:09:40;14.60;38.30
9118;DHT22;4594;50.994;7.126;2022-10-31T00:12:06;14.60;38.30
9118;DHT22;4594;50.994;7.126;2022-10-31T00:14:32;14.60;38.40
9118;DHT22;4594;50.994;7.126;2022-10-31T00:16:57;14.50;38.30
9118;DHT22;4594;50.994;7.126;2022-10-31T00:19:23;14.50;38.40
9118;DHT22;4594;50.994;7.126;2022-10-31T00:21:51;14.60;38.70
9118;DHT22;4594;50.994;7.126;2022-10-31T00:24:17;14.50;38.70
9118;DHT22;4594;50.994;7.126;2022-10-31T00:26:43;14.50;38.60
9118;DHT22;4594;50.994;7.126;2022-10-31T00:29:08;14.50;38.60
9118;DHT22;4594;50.994;7.126;2022-10-31T00:31:35;14.50;38.60
9118;DHT22;4594;50.994;7.126;2022-10-31T00:34:01;14.40;38.50
9118;DHT22;4594;50.994;7.126;2022-10-31T00:36:28;14.40;38.60
9118;DHT22;4594;50.994;7.126;2022-10-31T00:38:54;14.40;38.60
9118;DHT22;4594;50.994;7.126;2022-10-31T00:41:20;14.40;38.70
9118;DHT22;4594;50.994;7.126;2022-10-31T00:43:46;14.40;38.80
9118;DHT22;4594;50.994;7.126;2022-10-31T00:46:12;14.40;38.90
9118;DHT22;4594;50.994;7.126;2022-10-31T00:48:39;14.40;39.10
9118;DHT22;4594;50.994;7.126;2022-10-31T00:51:04;14.40;39.10
9118;DHT22;4594;50.994;7.126;2022-10-31T00:53:30;14.40;39.20
9118;DHT22;4594;50.994;7.126;2022-10-31T00:55:56;14.40;39.20
9118;DHT22;4594;50.994;7.126;2022-10-31T00:58:21;14.50;39.30
9118;DHT22;4594;50.994;7.126;2022-10-31T01:00:50;14.50;39.30
9118;DHT22;4594;50.994;7.126;2022-10-31T01:03:21;14.50;39.40
9118;DHT22;4594;50.994;7.126;2022-10-31T01:06:06;14.50;39.60
9118;DHT22;4594;50.994;7.126;2022-10-31T01:08:35;14.60;40.00
9118;DHT22;4594;50.994;7.126;2022-10-31T01:11:10;14.60;39.50
9118;DHT22;4594;50.994;7.126;2022-10-31T01:13:38;14.60;39.70
9118;DHT22;4594;50.994;7.126;2022-10-31T01:16:06;14.60;39.50
9118;DHT22;4594;50.994;7.126;2022-10-31T01:18:33;14.70;39.70
9118;DHT22;4594;50.994;7.126;2022-10-31T01:21:04;14.80;39.80
9118;DHT22;4594;50.994;7.126;2022-10-31T01:23:33;14.80;39.80
9118;DHT22;4594;50.994;7.126;2022-10-31T01:26:06;14.80;39.80
9118;DHT22;4594;50.994;7.126;2022-10-31T01:28:34;14.80;40.00
9118;DHT22;4594;50.994;7.126;2022-10-31T01:31:04;14.90;39.90
9118;DHT22;4594;50.994;7.126;2022-10-31T01:33:31;14.80;39.80
9118;DHT22;4594;50.994;7.126;2022-10-31T01:35:57;14.80;39.70
9118;DHT22;4594;50.994;7.126;2022-10-31T01:38:23;14.80;39.70
9118;DHT22;4594;50.994;7.126;2022-10-31T01:40:49;14.90;39.80
9118;DHT22;4594;50.994;7.126;2022-10-31T01:43:15;14.90;39.80
9118;DHT22;4594;50.994;7.126;2022-10-31T01:45:43;14.90;39.80
9118;DHT22;4594;50.994;7.126;2022-10-31T01:48:16;14.80;39.70
9118;DHT22;4594;50.994;7.126;2022-10-31T01:50:47;14.90;39.80
9118;DHT22;4594;50.994;7.126;2022-10-31T01:53:18;14.80;39.70
9118;DHT22;4594;50.994;7.126;2022-10-31T01:55:45;14.80;39.70
9118;DHT22;4594;50.994;7.126;2022-10-31T01:58:14;14.90;39.80
9118;DHT22;4594;50.994;7.126;2022-10-31T02:00:48;14.80;39.80
9118;DHT22;4594;50.994;7.126;2022-10-31T02:03:18;14.80;39.90
9118;DHT22;4594;50.994;7.126;2022-10-31T02:05:46;14.80;39.90
9118;DHT22;4594;50.994;7.126;2022-10-31T02:08:18;14.80;39.90
9118;DHT22;4594;50.994;7.126;2022-10-31T02:10:49;14.80;40.00
9118;DHT22;4594;50.994;7.126;2022-10-31T02:13:15;14.80;39.90
9118;DHT22;4594;50.994;7.126;2022-10-31T02:15:44;14.80;40.00
9118;DHT22;4594;50.994;7.126;2022-10-31T02:18:15;14.80;40.10
9118;DHT22;4594;50.994;7.126;2022-10-31T02:21:04;14.70;39.90
9118;DHT22;4594;50.994;7.126;2022-10-31T02:33:15;14.70;40.20
9118;DHT22;4594;50.994;7.126;2022-10-31T02:36:10;14.70;40.40
9118;DHT22;4594;50.994;7.126;2022-10-31T02:38:54;14.60;40.10
9118;DHT22;4594;50.994;7.126;2022-10-31T02:44:30;14.60;40.30
9118;DHT22;4594;50.994;7.126;2022-10-31T02:47:30;14.60;40.10
9118;DHT22;4594;50.994;7.126;2022-10-31T02:50:04;14.50;40.10
9118;DHT22;4594;50.994;7.126;2022-10-31T02:52:35;14.50;40.00
9118;DHT22;4594;50.994;7.126;2022-10-31T02:55:12;14.60;40.10
9118;DHT22;4594;50.994;7.126;2022-10-31T02:58:11;14.50;40.30
9118;DHT22;4594;50.994;7.126;2022-10-31T03:09:32;14.40;40.60
9118;DHT22;4594;50.994;7.126;2022-10-31T03:12:39;14.40;40.40
9118;DHT22;4594;50.994;7.126;2022-10-31T03:15:13;14.40;40.80
9118;DHT22;4594;50.994;7.126;2022-10-31T03:21:03;14.40;40.80
9118;DHT22;4594;50.994;7.126;2022-10-31T03:23:36;14.40;40.60
9118;DHT22;4594;50.994;7.126;2022-10-31T03:26:06;14.40;40.70
9118;DHT22;4594;50.994;7.126;2022-10-31T03:28:44;14.40;40.80
9118;DHT22;4594;50.994;7.126;2022-10-31T03:31:17;14.40;40.90
9118;DHT22;4594;50.994;7.126;2022-10-31T03:33:46;14.50;41.10
9118;DHT22;4594;50.994;7.126;2022-10-31T03:36:14;14.50;41.00
9118;DHT22;4594;50.994;7.126;2022-10-31T03:38:43;14.50;41.00
9118;DHT22;4594;50.994;7.126;2022-10-31T03:41:16;14.50;41.00
9118;DHT22;4594;50.994;7.126;2022-10-31T03:44:00;14.60;41.20
9118;DHT22;4594;50.994;7.126;2022-10-31T03:46:30;14.60;41.20
9118;DHT22;4594;50.994;7.126;2022-10-31T03:48:57;14.60;41.00
9118;DHT22;4594;50.994;7.126;2022-10-31T03:51:29;14.60;41.00
9118;DHT22;4594;50.994;7.126;2022-10-31T03:54:23;14.60;41.00
9118;DHT22;4594;50.994;7.126;2022-10-31T03:57:25;14.60;41.40
9118;DHT22;4594;50.994;7.126;2022-10-31T04:00:07;14.60;41.50
9118;DHT22;4594;50.994;7.126;2022-10-31T04:02:41;14.60;41.30
9118;DHT22;4594;50.994;7.126;2022-10-31T04:05:13;14.60;41.00
9118;DHT22;4594;50.994;7.126;2022-10-31T04:07:45;14.60;40.90
9118;DHT22;4594;50.994;7.126;2022-10-31T04:10:16;14.60;41.00
9118;DHT22;4594;50.994;7.126;2022-10-31T04:12:44;14.50;40.90
9118;DHT22;4594;50.994;7.126;2022-10-31T04:15:14;14.50;40.90
9118;DHT22;4594;50.994;7.126;2022-10-31T04:17:41;14.50;40.90
9118;DHT22;4594;50.994;7.126;2022-10-31T04:20:10;14.60;41.10
9118;DHT22;4594;50.994;7.126;2022-10-31T04:22:36;14.50;41.00
9118;DHT22;4594;50.994;7.126;2022-10-31T04:25:02;14.40;41.00
9118;DHT22;4594;50.994;7.126;2022-10-31T04:27:28;14.40;41.10
9118;DHT22;4594;50.994;7.126;2022-10-31T04:29:53;14.40;41.10
9118;DHT22;4594;50.994;7.126;2022-10-31T04:32:19;14.30;41.10
9118;DHT22;4594;50.994;7.126;2022-10-31T04:34:44;14.30;41.10
9118;DHT22;4594;50.994;7.126;2022-10-31T04:37:10;14.30;41.10
9118;DHT22;4594;50.994;7.126;2022-10-31T04:39:36;14.20;41.00
9118;DHT22;4594;50.994;7.126;2022-10-31T04:42:01;14.20;41.00
9118;DHT22;4594;50.994;7.126;2022-10-31T04:44:27;14.30;41.20
9118;DHT22;4594;50.994;7.126;2022-10-31T04:46:53;14.20;41.10
9118;DHT22;4594;50.994;7.126;2022-10-31T04:49:18;14.20;41.10
9118;DHT22;4594;50.994;7.126;2022-10-31T04:51:44;14.20;41.20
9118;DHT22;4594;50.994;7.126;2022-10-31T04:54:09;14.10;41.10
9118;DHT22;4594;50.994;7.126;2022-10-31T04:56:35;14.30;41.30
9118;DHT22;4594;50.994;7.126;2022-10-31T04:59:01;14.20;41.30
9118;DHT22;4594;50.994;7.126;2022-10-31T05:01:27;14.30;41.50
9118;DHT22;4594;50.994;7.126;2022-10-31T05:03:53;14.20;41.40
9118;DHT22;4594;50.994;7.126;2022-10-31T05:06:18;14.20;41.50
9118;DHT22;4594;50.994;7.126;2022-10-31T05:08:44;14.10;41.50
9118;DHT22;4594;50.994;7.126;2022-10-31T05:11:10;14.10;41.50
9118;DHT22;4594;50.994;7.126;2022-10-31T05:13:36;14.20;41.70
9118;DHT22;4594;50.994;7.126;2022-10-31T05:16:02;14.10;41.60
9118;DHT22;4594;50.994;7.126;2022-10-31T05:18:28;14.20;41.70
9118;DHT22;4594;50.994;7.126;2022-10-31T05:20:54;14.20;41.70
9118;DHT22;4594;50.994;7.126;2022-10-31T05:23:19;14.20;41.70
9118;DHT22;4594;50.994;7.126;2022-10-31T05:25:45;14.20;41.80
9118;DHT22;4594;50.994;7.126;2022-10-31T05:28:11;14.10;41.80
9118;DHT22;4594;50.994;7.126;2022-10-31T05:30:37;14.20;41.80
9118;DHT22;4594;50.994;7.126;2022-10-31T05:33:02;14.20;41.90
9118;DHT22;4594;50.994;7.126;2022-10-31T05:35:30;14.20;41.80
9118;DHT22;4594;50.994;7.126;2022-10-31T05:37:58;14.10;41.80
9118;DHT22;4594;50.994;7.126;2022-10-31T05:40:25;14.10;41.80
9118;DHT22;4594;50.994;7.126;2022-10-31T05:42:53;14.10;41.80
9118;DHT22;4594;50.994;7.126;2022-10-31T05:45:20;14.10;41.80
9118;DHT22;4594;50.994;7.126;2022-10-31T05:47:54;14.10;41.70
9118;DHT22;4594;50.994;7.126;2022-10-31T05:50:22;14.10;42.30
9118;DHT22;4594;50.994;7.126;2022-10-31T05:55:23;14.00;42.10
9118;DHT22;4594;50.994;7.126;2022-10-31T05:57:51;14.00;41.80
9118;DHT22;4594;50.994;7.126;2022-10-31T06:00:18;14.00;41.80
9118;DHT22;4594;50.994;7.126;2022-10-31T06:02:44;14.00;41.80
9118;DHT22;4594;50.994;7.126;2022-10-31T06:05:10;14.00;41.90
9118;DHT22;4594;50.994;7.126;2022-10-31T06:07:35;14.00;42.10
9118;DHT22;4594;50.994;7.126;2022-10-31T06:10:04;14.00;42.20
9118;DHT22;4594;50.994;7.126;2022-10-31T06:12:31;14.00;42.30
9118;DHT22;4594;50.994;7.126;2022-10-31T06:14:57;14.00;42.30
9118;DHT22;4594;50.994;7.126;2022-10-31T06:17:22;14.00;42.30
9118;DHT22;4594;50.994;7.126;2022-10-31T06:19:48;14.00;42.40
9118;DHT22;4594;50.994;7.126;2022-10-31T06:22:14;14.10;42.50
9118;DHT22;4594;50.994;7.126;2022-10-31T06:24:39;14.00;42.50
9118;DHT22;4594;50.994;7.126;2022-10-31T06:27:05;14.10;42.60
9118;DHT22;4594;50.994;7.126;2022-10-31T06:29:31;14.20;42.70
9118;DHT22;4594;50.994;7.126;2022-10-31T06:31:57;14.20;42.70
9118;DHT22;4594;50.994;7.126;2022-10-31T06:34:23;14.20;42.70
9118;DHT22;4594;50.994;7.126;2022-10-31T06:36:49;14.20;42.80
9118;DHT22;4594;50.994;7.126;2022-10-31T06:39:15;14.30;42.90
9118;DHT22;4594;50.994;7.126;2022-10-31T06:41:41;14.30;42.90
9118;DHT22;4594;50.994;7.126;2022-10-31T06:44:07;14.30;42.90
9118;DHT22;4594;50.994;7.126;2022-10-31T06:46:33;14.40;43.00
9118;DHT22;4594;50.994;7.126;2022-10-31T06:48:59;14.40;43.00
9118;DHT22;4594;50.994;7.126;2022-10-31T06:51:25;14.50;43.00
9118;DHT22;4594;50.994;7.126;2022-10-31T06:53:51;14.60;43.10
9118;DHT22;4594;50.994;7.126;2022-10-31T06:56:17;14.50;43.10
9118;DHT22;4594;50.994;7.126;2022-10-31T06:58:42;14.60;43.20
9118;DHT22;4594;50.994;7.126;2022-10-31T07:01:08;14.60;43.20
9118;DHT22;4594;50.994;7.126;2022-10-31T07:03:33;14.70;43.30
9118;DHT22;4594;50.994;7.126;2022-10-31T07:05:59;14.70;43.40
9118;DHT22;4594;50.994;7.126;2022-10-31T07:08:25;14.80;43.60
9118;DHT22;4594;50.994;7.126;2022-10-31T07:10:53;14.80;43.60
9118;DHT22;4594;50.994;7.126;2022-10-31T07:13:21;14.90;43.80
9118;DHT22;4594;50.994;7.126;2022-10-31T07:15:52;15.00;43.90
9118;DHT22;4594;50.994;7.126;2022-10-31T07:18:19;15.10;44.00
9118;DHT22;4594;50.994;7.126;2022-10-31T07:20:45;15.20;44.10
9118;DHT22;4594;50.994;7.126;2022-10-31T07:23:11;15.30;44.10
9118;DHT22;4594;50.994;7.126;2022-10-31T07:25:39;15.40;44.20
9118;DHT22;4594;50.994;7.126;2022-10-31T07:28:06;15.40;44.10
9118;DHT22;4594;50.994;7.126;2022-10-31T07:30:32;15.50;44.10
9118;DHT22;4594;50.994;7.126;2022-10-31T07:32:58;15.60;44.00
9118;DHT22;4594;50.994;7.126;2022-10-31T07:35:26;15.70;44.00
9118;DHT22;4594;50.994;7.126;2022-10-31T07:37:53;15.70;44.00
9118;DHT22;4594;50.994;7.126;2022-10-31T07:40:20;15.80;44.00
9118;DHT22;4594;50.994;7.126;2022-10-31T07:42:49;15.90;44.10
9118;DHT22;4594;50.994;7.126;2022-10-31T07:45:18;16.00;44.20
9118;DHT22;4594;50.994;7.126;2022-10-31T07:47:50;16.00;44.10
9118;DHT22;4594;50.994;7.126;2022-10-31T07:50:26;16.20;44.40
9118;DHT22;4594;50.994;7.126;2022-10-31T07:53:09;16.30;44.40
9118;DHT22;4594;50.994;7.126;2022-10-31T07:55:36;16.40;44.50
9118;DHT22;4594;50.994;7.126;2022-10-31T07:58:05;16.50;44.50
9118;DHT22;4594;50.994;7.126;2022-10-31T08:00:37;16.60;44.60
9118;DHT22;4594;50.994;7.126;2022-10-31T08:03:06;16.80;44.70
9118;DHT22;4594;50.994;7.126;2022-10-31T08:05:34;16.90;44.70
9118;DHT22;4594;50.994;7.126;2022-10-31T08:08:00;17.00;44.70
9118;DHT22;4594;50.994;7.126;2022-10-31T08:10:27;17.10;44.80
9118;DHT22;4594;50.994;7.126;2022-10-31T08:13:04;17.20;44.90
9118;DHT22;4594;50.994;7.126;2022-10-31T08:15:32;17.30;44.70
9118;DHT22;4594;50.994;7.126;2022-10-31T08:17:59;17.40;44.80
9118;DHT22;4594;50.994;7.126;2022-10-31T08:20:25;17.50;44.80
9118;DHT22;4594;50.994;7.126;2022-10-31T08:23:02;17.60;44.80
9118;DHT22;4594;50.994;7.126;2022-10-31T08:25:30;17.80;44.80
9118;DHT22;4594;50.994;7.126;2022-10-31T08:27:57;17.80;44.80
9118;DHT22;4594;50.994;7.126;2022-10-31T08:30:27;18.00;44.80
9118;DHT22;4594;50.994;7.126;2022-10-31T08:33:03;18.10;44.80
9118;DHT22;4594;50.994;7.126;2022-10-31T08:35:32;18.20;44.60
9118;DHT22;4594;50.994;7.126;2022-10-31T08:37:58;18.30;44.60
9118;DHT22;4594;50.994;7.126;2022-10-31T08:40:28;18.30;44.30
9118;DHT22;4594;50.994;7.126;2022-10-31T08:43:06;18.40;44.20
9118;DHT22;4594;50.994;7.126;2022-10-31T08:45:35;18.50;44.10
9118;DHT22;4594;50.994;7.126;2022-10-31T08:48:04;18.50;44.20
9118;DHT22;4594;50.994;7.126;2022-10-31T08:50:33;18.60;44.10
9118;DHT22;4594;50.994;7.126;2022-10-31T08:53:01;18.60;44.10
9118;DHT22;4594;50.994;7.126;2022-10-31T08:55:37;18.70;44.00
9118;DHT22;4594;50.994;7.126;2022-10-31T08:58:05;18.80;44.10
9118;DHT22;4594;50.994;7.126;2022-10-31T09:00:34;18.80;44.00
9118;DHT22;4594;50.994;7.126;2022-10-31T09:03:05;18.90;44.00
9118;DHT22;4594;50.994;7.126;2022-10-31T09:05:34;19.00;43.80
9118;DHT22;4594;50.994;7.126;2022-10-31T09:08:02;19.00;43.80
9118;DHT22;4594;50.994;7.126;2022-10-31T09:10:29;19.00;43.80
9118;DHT22;4594;50.994;7.126;2022-10-31T09:13:04;19.10;43.80
9118;DHT22;4594;50.994;7.126;2022-10-31T09:15:33;19.10;43.60
9118;DHT22;4594;50.994;7.126;2022-10-31T09:18:01;19.20;43.70
9118;DHT22;4594;50.994;7.126;2022-10-31T09:20:28;19.10;43.60
9118;DHT22;4594;50.994;7.126;2022-10-31T09:23:01;19.10;43.50
9118;DHT22;4594;50.994;7.126;2022-10-31T09:25:29;19.20;43.50
9118;DHT22;4594;50.994;7.126;2022-10-31T09:28:00;19.20;43.80
9118;DHT22;4594;50.994;7.126;2022-10-31T09:30:28;19.30;43.70
9118;DHT22;4594;50.994;7.126;2022-10-31T09:32:56;19.30;43.70
9118;DHT22;4594;50.994;7.126;2022-10-31T09:35:27;19.30;43.70
9118;DHT22;4594;50.994;7.126;2022-10-31T09:37:58;19.40;43.70
9118;DHT22;4594;50.994;7.126;2022-10-31T09:41:01;19.50;43.70
9118;DHT22;4594;50.994;7.126;2022-10-31T09:46:48;19.70;43.80
9118;DHT22;4594;50.994;7.126;2022-10-31T09:52:33;19.90;44.40
9118;DHT22;4594;50.994;7.126;2022-10-31T09:55:20;20.10;44.30
9118;DHT22;4594;50.994;7.126;2022-10-31T09:58:18;20.30;45.00
9118;DHT22;4594;50.994;7.126;2022-10-31T10:00:47;20.60;45.20
9118;DHT22;4594;50.994;7.126;2022-10-31T10:03:34;21.00;46.00
9118;DHT22;4594;50.994;7.126;2022-10-31T10:08:40;21.80;46.40
9118;DHT22;4594;50.994;7.126;2022-10-31T10:14:27;22.70;45.50
9118;DHT22;4594;50.994;7.126;2022-10-31T10:17:15;23.20;45.10
9118;DHT22;4594;50.994;7.126;2022-10-31T10:23:15;23.70;44.60
9118;DHT22;4594;50.994;7.126;2022-10-31T10:28:40;24.00;42.90
9118;DHT22;4594;50.994;7.126;2022-10-31T10:31:15;24.00;42.70
9118;DHT22;4594;50.994;7.126;2022-10-31T10:36:47;23.90;41.50
9118;DHT22;4594;50.994;7.126;2022-10-31T10:39:32;23.80;41.70
9118;DHT22;4594;50.994;7.126;2022-10-31T10:42:13;23.70;41.20
9118;DHT22;4594;50.994;7.126;2022-10-31T10:45:00;23.60;41.30
9118;DHT22;4594;50.994;7.126;2022-10-31T10:50:51;23.40;40.90
9118;DHT22;4594;50.994;7.126;2022-10-31T10:56:20;23.20;40.70
9118;DHT22;4594;50.994;7.126;2022-10-31T10:58:56;23.10;40.00
9118;DHT22;4594;50.994;7.126;2022-10-31T11:01:22;23.10;40.70
9118;DHT22;4594;50.994;7.126;2022-10-31T11:03:48;23.00;40.70
9118;DHT22;4594;50.994;7.126;2022-10-31T11:06:18;22.90;40.70
9118;DHT22;4594;50.994;7.126;2022-10-31T11:08:50;22.90;40.60
9118;DHT22;4594;50.994;7.126;2022-10-31T11:11:31;22.90;40.70
9118;DHT22;4594;50.994;7.126;2022-10-31T11:14:03;22.90;40.20
9118;DHT22;4594;50.994;7.126;2022-10-31T11:16:39;22.80;40.50
9118;DHT22;4594;50.994;7.126;2022-10-31T11:19:16;22.80;40.70
9118;DHT22;4594;50.994;7.126;2022-10-31T11:21:45;22.80;40.50
9118;DHT22;4594;50.994;7.126;2022-10-31T11:24:25;22.80;40.70
9118;DHT22;4594;50.994;7.126;2022-10-31T11:27:09;22.80;40.30
9118;DHT22;4594;50.994;7.126;2022-10-31T11:29:39;22.80;40.20
9118;DHT22;4594;50.994;7.126;2022-10-31T11:32:04;22.80;40.50
9118;DHT22;4594;50.994;7.126;2022-10-31T11:34:37;22.70;40.40
9118;DHT22;4594;50.994;7.126;2022-10-31T11:37:28;22.70;40.20
9118;DHT22;4594;50.994;7.126;2022-10-31T11:39:59;22.70;40.10
9118;DHT22;4594;50.994;7.126;2022-10-31T11:42:36;22.70;40.40
9118;DHT22;4594;50.994;7.126;2022-10-31T11:45:16;22.70;40.20
9118;DHT22;4594;50.994;7.126;2022-10-31T11:47:48;22.70;40.00
9118;DHT22;4594;50.994;7.126;2022-10-31T11:50:20;22.70;40.20
9118;DHT22;4594;50.994;7.126;2022-10-31T11:52:54;22.70;40.00
9118;DHT22;4594;50.994;7.126;2022-10-31T11:57:59;22.70;39.80
9118;DHT22;4594;50.994;7.126;2022-10-31T12:00:36;22.70;40.00
9118;DHT22;4594;50.994;7.126;2022-10-31T12:05:52;22.70;39.80
9118;DHT22;4594;50.994;7.126;2022-10-31T12:08:25;22.70;39.80
9118;DHT22;4594;50.994;7.126;2022-10-31T12:17:00;22.70;39.60
9118;DHT22;4594;50.994;7.126;2022-10-31T12:22:41;22.60;39.70
9118;DHT22;4594;50.994;7.126;2022-10-31T12:28:36;22.50;39.10
9118;DHT22;4594;50.994;7.126;2022-10-31T12:31:32;22.50;39.10
9118;DHT22;4594;50.994;7.126;2022-10-31T12:37:28;22.50;39.10
9118;DHT22;4594;50.994;7.126;2022-10-31T12:45:42;22.40;39.10
9118;DHT22;4594;50.994;7.126;2022-10-31T13:02:38;22.40;39.00
9118;DHT22;4594;50.994;7.126;2022-10-31T13:05:41;22.40;38.90
9118;DHT22;4594;50.994;7.126;2022-10-31T13:08:15;22.40;39.00
9118;DHT22;4594;50.994;7.126;2022-10-31T13:16:56;22.40;38.90
9118;DHT22;4594;50.994;7.126;2022-10-31T13:19:38;22.40;39.00
9118;DHT22;4594;50.994;7.126;2022-10-31T13:22:20;22.40;38.70
9118;DHT22;4594;50.994;7.126;2022-10-31T13:27:25;22.40;38.90
9118;DHT22;4594;50.994;7.126;2022-10-31T13:41:40;22.50;38.80
9118;DHT22;4594;50.994;7.126;2022-10-31T13:44:29;22.50;38.60
9118;DHT22;4594;50.994;7.126;2022-10-31T13:47:00;22.50;38.60
9118;DHT22;4594;50.994;7.126;2022-10-31T14:02:51;22.50;38.40
9118;DHT22;4594;50.994;7.126;2022-10-31T14:05:30;22.50;38.40
9118;DHT22;4594;50.994;7.126;2022-10-31T14:08:01;22.50;38.20
9118;DHT22;4594;50.994;7.126;2022-10-31T14:10:35;22.50;38.40
9118;DHT22;4594;50.994;7.126;2022-10-31T14:15:34;22.40;38.30
9118;DHT22;4594;50.994;7.126;2022-10-31T14:18:38;22.40;38.30
9118;DHT22;4594;50.994;7.126;2022-10-31T14:23:51;22.40;38.20
9118;DHT22;4594;50.994;7.126;2022-10-31T14:26:32;22.30;38.20
9118;DHT22;4594;50.994;7.126;2022-10-31T14:34:39;22.20;37.90
9118;DHT22;4594;50.994;7.126;2022-10-31T14:45:29;22.00;37.90
9118;DHT22;4594;50.994;7.126;2022-10-31T14:48:18;22.00;38.10
9118;DHT22;4594;50.994;7.126;2022-10-31T14:53:55;22.00;38.00
9118;DHT22;4594;50.994;7.126;2022-10-31T14:56:30;22.00;37.90
9118;DHT22;4594;50.994;7.126;2022-10-31T14:59:05;22.00;37.90
9118;DHT22;4594;50.994;7.126;2022-10-31T15:01:36;21.90;37.90
9118;DHT22;4594;50.994;7.126;2022-10-31T15:04:15;21.90;37.90
9118;DHT22;4594;50.994;7.126;2022-10-31T15:06:50;21.90;37.80
9118;DHT22;4594;50.994;7.126;2022-10-31T15:09:28;21.90;37.80
9118;DHT22;4594;50.994;7.126;2022-10-31T15:11:58;21.80;37.60
9118;DHT22;4594;50.994;7.126;2022-10-31T15:14:28;21.80;37.80
9118;DHT22;4594;50.994;7.126;2022-10-31T15:16:57;21.80;37.50
9118;DHT22;4594;50.994;7.126;2022-10-31T15:19:27;21.80;37.70
9118;DHT22;4594;50.994;7.126;2022-10-31T15:21:56;21.80;37.50
9118;DHT22;4594;50.994;7.126;2022-10-31T15:24:25;21.80;37.50
9118;DHT22;4594;50.994;7.126;2022-10-31T15:26:57;21.70;37.40
9118;DHT22;4594;50.994;7.126;2022-10-31T15:29:26;21.80;37.50
9118;DHT22;4594;50.994;7.126;2022-10-31T15:31:54;21.80;37.40
9118;DHT22;4594;50.994;7.126;2022-10-31T15:37:03;21.70;37.20
9118;DHT22;4594;50.994;7.126;2022-10-31T15:39:29;21.70;37.30
9118;DHT22;4594;50.994;7.126;2022-10-31T15:41:57;21.70;37.30
9118;DHT22;4594;50.994;7.126;2022-10-31T15:44:33;21.70;37.20
9118;DHT22;4594;50.994;7.126;2022-10-31T15:47:06;21.50;36.90
9118;DHT22;4594;50.994;7.126;2022-10-31T15:49:49;21.60;37.10
9118;DHT22;4594;50.994;7.126;2022-10-31T15:54:53;21.40;36.90
9118;DHT22;4594;50.994;7.126;2022-10-31T15:57:24;21.40;37.00
9118;DHT22;4594;50.994;7.126;2022-10-31T15:59:51;21.30;36.90
9118;DHT22;4594;50.994;7.126;2022-10-31T16:02:21;21.20;36.80
9118;DHT22;4594;50.994;7.126;2022-10-31T16:04:59;21.20;36.80
9118;DHT22;4594;50.994;7.126;2022-10-31T16:07:27;21.10;36.80
9118;DHT22;4594;50.994;7.126;2022-10-31T16:09:59;20.90;36.70
9118;DHT22;4594;50.994;7.126;2022-10-31T16:12:36;21.00;37.10
9118;DHT22;4594;50.994;7.126;2022-10-31T16:15:04;21.00;36.70
9118;DHT22;4594;50.994;7.126;2022-10-31T16:17:32;20.90;36.70
9118;DHT22;4594;50.994;7.126;2022-10-31T16:20:03;20.80;36.70
9118;DHT22;4594;50.994;7.126;2022-10-31T16:22:35;20.80;36.70
9118;DHT22;4594;50.994;7.126;2022-10-31T16:25:14;20.70;36.60
9118;DHT22;4594;50.994;7.126;2022-10-31T16:27:50;20.60;36.60
9118;DHT22;4594;50.994;7.126;2022-10-31T16:30:46;20.50;36.50
9118;DHT22;4594;50.994;7.126;2022-10-31T16:33:31;20.60;36.60
9118;DHT22;4594;50.994;7.126;2022-10-31T16:36:00;20.50;36.50
9118;DHT22;4594;50.994;7.126;2022-10-31T16:38:28;20.50;36.60
9118;DHT22;4594;50.994;7.126;2022-10-31T16:40:54;20.40;36.60
9118;DHT22;4594;50.994;7.126;2022-10-31T16:43:20;20.40;36.60
9118;DHT22;4594;50.994;7.126;2022-10-31T16:45:50;20.30;36.60
9118;DHT22;4594;50.994;7.126;2022-10-31T16:48:19;20.30;36.60
9118;DHT22;4594;50.994;7.126;2022-10-31T16:50:49;20.30;36.60
9118;DHT22;4594;50.994;7.126;2022-10-31T16:53:16;20.20;36.60
9118;DHT22;4594;50.994;7.126;2022-10-31T16:55:57;20.20;36.60
9118;DHT22;4594;50.994;7.126;2022-10-31T16:58:29;20.20;36.60
9118;DHT22;4594;50.994;7.126;2022-10-31T17:01:05;20.10;36.60
9118;DHT22;4594;50.994;7.126;2022-10-31T17:03:32;20.10;36.60
9118;DHT22;4594;50.994;7.126;2022-10-31T17:05:57;20.10;36.70
9118;DHT22;4594;50.994;7.126;2022-10-31T17:08:24;20.10;36.70
9118;DHT22;4594;50.994;7.126;2022-10-31T17:10:51;20.20;36.80
9118;DHT22;4594;50.994;7.126;2022-10-31T17:13:22;20.20;36.90
9118;DHT22;4594;50.994;7.126;2022-10-31T17:15:58;20.20;36.80
9118;DHT22;4594;50.994;7.126;2022-10-31T17:18:25;20.20;36.80
9118;DHT22;4594;50.994;7.126;2022-10-31T17:20:55;20.20;36.90
9118;DHT22;4594;50.994;7.126;2022-10-31T17:23:26;20.30;37.00
9118;DHT22;4594;50.994;7.126;2022-10-31T17:25:52;20.10;36.80
9118;DHT22;4594;50.994;7.126;2022-10-31T17:28:18;20.20;36.90
9118;DHT22;4594;50.994;7.126;2022-10-31T17:30:44;20.30;37.00
9118;DHT22;4594;50.994;7.126;2022-10-31T17:33:14;20.20;36.90
9118;DHT22;4594;50.994;7.126;2022-10-31T17:35:44;20.20;36.90
9118;DHT22;4594;50.994;7.126;2022-10-31T17:38:10;20.20;36.90
9118;DHT22;4594;50.994;7.126;2022-10-31T17:40:37;20.10;36.80
9118;DHT22;4594;50.994;7.126;2022-10-31T17:43:03;20.20;37.00
9118;DHT22;4594;50.994;7.126;2022-10-31T17:45:30;20.10;36.90
9118;DHT22;4594;50.994;7.126;2022-10-31T17:47:55;20.20;37.00
9118;DHT22;4594;50.994;7.126;2022-10-31T17:50:23;19.90;36.80
9118;DHT22;4594;50.994;7.126;2022-10-31T17:52:51;20.10;36.90
9118;DHT22;4594;50.994;7.126;2022-10-31T17:55:17;20.00;36.90
9118;DHT22;4594;50.994;7.126;2022-10-31T17:57:44;20.00;36.80
9118;DHT22;4594;50.994;7.126;2022-10-31T18:00:16;20.00;36.90
9118;DHT22;4594;50.994;7.126;2022-10-31T18:02:43;20.00;36.80
9118;DHT22;4594;50.994;7.126;2022-10-31T18:05:09;20.00;36.80
9118;DHT22;4594;50.994;7.126;2022-10-31T18:07:35;20.00;36.80
9118;DHT22;4594;50.994;7.126;2022-10-31T18:10:01;19.90;36.80
9118;DHT22;4594;50.994;7.126;2022-10-31T18:12:27;19.90;36.80
9118;DHT22;4594;50.994;7.126;2022-10-31T18:14:53;19.90;36.80
9118;DHT22;4594;50.994;7.126;2022-10-31T18:17:19;19.90;36.80
9118;DHT22;4594;50.994;7.126;2022-10-31T18:19:46;19.90;36.80
9118;DHT22;4594;50.994;7.126;2022-10-31T18:22:12;19.80;36.80
9118;DHT22;4594;50.994;7.126;2022-10-31T18:24:38;19.90;36.80
9118;DHT22;4594;50.994;7.126;2022-10-31T18:27:04;19.80;36.80
9118;DHT22;4594;50.994;7.126;2022-10-31T18:29:30;19.80;36.80
9118;DHT22;4594;50.994;7.126;2022-10-31T18:31:56;19.70;36.80
9118;DHT22;4594;50.994;7.126;2022-10-31T18:34:21;19.70;36.80
9118;DHT22;4594;50.994;7.126;2022-10-31T18:36:47;19.70;36.80
9118;DHT22;4594;50.994;7.126;2022-10-31T18:39:14;19.70;36.80
9118;DHT22;4594;50.994;7.126;2022-10-31T18:41:41;19.60;36.70
9118;DHT22;4594;50.994;7.126;2022-10-31T18:44:07;19.60;36.80
9118;DHT22;4594;50.994;7.126;2022-10-31T18:46:34;19.60;36.80
9118;DHT22;4594;50.994;7.126;2022-10-31T18:49:02;19.50;36.70
9118;DHT22;4594;50.994;7.126;2022-10-31T18:51:28;19.10;36.40
9118;DHT22;4594;50.994;7.126;2022-10-31T18:53:57;19.40;36.70
9118;DHT22;4594;50.994;7.126;2022-10-31T18:56:25;19.60;36.90
9118;DHT22;4594;50.994;7.126;2022-10-31T18:58:52;19.40;36.70
9118;DHT22;4594;50.994;7.126;2022-10-31T19:01:19;19.40;36.80
9118;DHT22;4594;50.994;7.126;2022-10-31T19:03:51;19.40;36.80